Time;durP1;ratioP1;P1;durP2;ratioP2;P2;SDS_P1;SDS_P2;PMS_P1;PMS_P2;Temp;Humidity;BMP_temperature;BMP_pressure;BME280_temperature;BME280_humidity;BME280_pressure;Samples;Min_cycle;Max_cycle;Signal;HPM_P1;HPM_P2
2023/05/07 00:02:05;;;;;;;10.82;5.30;;;;;;;;;;6355051;22;20243;-92
2023/05/07 00:05:12;;;;;;;11.88;5.30;;;;;;;;;;6354346;22;20179;-93
2023/05/07 00:08:17;;;;;;;12.25;5.20;;;;;;;;;;6354505;22;20160;-92
2023/05/07 00:11:22;;;;;;;9.35;6.03;;;;;;;;;;6353742;22;20176;-91
2023/05/07 00:14:28;;;;;;;8.00;5.00;;;;;;;;;;6335192;22;20164;-92
2023/05/07 00:17:34;;;;;;;12.15;5.60;;;;;;;;;;6354156;22;20187;-94
2023/05/07 00:20:41;;;;;;;10.07;5.68;;;;;;;;;;6353206;22;20612;-91
2023/05/07 00:23:47;;;;;;;13.95;5.57;;;;;;;;;;6353497;22;20172;-92
2023/05/07 00:26:52;;;;;;;14.32;6.10;;;;;;;;;;6351739;22;20164;-90
2023/05/07 00:29:59;;;;;;;11.30;6.50;;;;;;;;;;6358268;22;20213;-90
2023/05/07 00:33:07;;;;;;;10.60;5.90;;;;;;;;;;6355820;22;20176;-91
2023/05/07 00:36:14;;;;;;;9.85;5.30;;;;;;;;;;6338321;22;20628;-92
2023/05/07 00:39:20;;;;;;;8.05;5.22;;;;;;;;;;6355064;22;20144;-91
2023/05/07 00:42:25;;;;;;;12.00;5.28;;;;;;;;;;6354378;22;20187;-94
2023/05/07 00:45:33;;;;;;;8.10;4.78;;;;;;;;;;6334534;22;20168;-93
2023/05/07 00:48:40;;;;;;;8.82;5.35;;;;;;;;;;6336539;22;20172;-93
2023/05/07 00:51:47;;;;;;;11.30;5.22;;;;;;;;;;6335997;22;20163;-90
2023/05/07 00:54:52;;;;;;;10.10;4.75;;;;;;;;;;6351936;22;20165;-92
2023/05/07 00:57:57;;;;;;;12.23;5.68;;;;;;;;;;6351578;22;20191;-93
2023/05/07 01:01:03;;;;;;;10.27;5.20;;;;;;;;;;6351981;22;20160;-93
2023/05/07 01:04:09;;;;;;;9.02;4.72;;;;;;;;;;6334945;22;20163;-93
2023/05/07 01:07:16;;;;;;;10.85;4.88;;;;;;;;;;6335943;22;20167;-91
2023/05/07 01:10:22;;;;;;;9.82;5.38;;;;;;;;;;6354470;22;20231;-92
2023/05/07 01:13:27;;;;;;;7.85;5.50;;;;;;;;;;6355950;22;20219;-91
2023/05/07 01:16:33;;;;;;;12.52;5.38;;;;;;;;;;6355712;22;20188;-92
2023/05/07 01:19:39;;;;;;;9.48;5.10;;;;;;;;;;6356219;22;20171;-91
2023/05/07 01:22:46;;;;;;;8.15;4.70;;;;;;;;;;6356534;22;20172;-91
2023/05/07 01:25:53;;;;;;;7.90;4.18;;;;;;;;;;6338010;22;20214;-93
2023/05/07 01:29:00;;;;;;;10.30;5.28;;;;;;;;;;6356831;22;20243;-92
2023/05/07 01:32:07;;;;;;;7.72;5.05;;;;;;;;;;6357501;22;20183;-91
2023/05/07 01:35:14;;;;;;;13.23;5.25;;;;;;;;;;6356445;22;20182;-92
2023/05/07 01:38:20;;;;;;;10.52;5.47;;;;;;;;;;6340237;22;20184;-91
2023/05/07 01:41:26;;;;;;;11.68;5.40;;;;;;;;;;6358392;22;20190;-93
2023/05/07 01:44:35;;;;;;;14.73;5.57;;;;;;;;;;6339856;22;20152;-91
2023/05/07 01:47:44;;;;;;;12.82;5.50;;;;;;;;;;6357870;22;20184;-93
2023/05/07 01:50:50;;;;;;;11.13;5.57;;;;;;;;;;6357533;22;20211;-91
2023/05/07 01:53:56;;;;;;;8.30;5.40;;;;;;;;;;6359048;22;20180;-94
2023/05/07 01:57:01;;;;;;;11.05;5.05;;;;;;;;;;6339247;22;20195;-93
2023/05/07 02:00:09;;;;;;;10.32;5.88;;;;;;;;;;6356603;22;20155;-93
2023/05/07 02:03:20;;;;;;;12.60;5.38;;;;;;;;;;6357434;22;20498;-93
2023/05/07 02:06:38;;;;;;;11.05;5.15;;;;;;;;;;6357862;22;20152;-91
2023/05/07 02:09:46;;;;;;;8.68;5.32;;;;;;;;;;6338514;22;20167;-91
2023/05/07 02:12:51;;;;;;;13.13;5.88;;;;;;;;;;6354560;22;20207;-94
2023/05/07 02:15:57;;;;;;;9.52;5.90;;;;;;;;;;6356795;22;20164;-93
2023/05/07 02:19:03;;;;;;;12.50;5.68;;;;;;;;;;6355188;22;20235;-95
2023/05/07 02:22:09;;;;;;;9.65;5.43;;;;;;;;;;6355469;22;20157;-91
2023/05/07 02:25:16;;;;;;;8.10;5.10;;;;;;;;;;6338223;22;20233;-93
2023/05/07 02:28:21;;;;;;;11.10;5.50;;;;;;;;;;6337273;22;20160;-91
2023/05/07 02:31:35;;;;;;;7.97;4.95;;;;;;;;;;6356284;22;20229;-91
2023/05/07 02:34:41;;;;;;;9.82;4.63;;;;;;;;;;6337577;22;20165;-93
2023/05/07 02:37:46;;;;;;;8.32;5.45;;;;;;;;;;6356227;22;20234;-92
2023/05/07 02:40:55;;;;;;;10.98;5.10;;;;;;;;;;6356477;22;20144;-94
2023/05/07 02:44:01;;;;;;;10.35;5.25;;;;;;;;;;6339672;22;20161;-92
2023/05/07 02:47:08;;;;;;;8.13;5.20;;;;;;;;;;6355986;22;20168;-90
2023/05/07 02:50:14;;;;;;;9.80;4.82;;;;;;;;;;6356932;22;20175;-92
2023/05/07 02:53:19;;;;;;;9.95;5.28;;;;;;;;;;6356728;22;20219;-95
2023/05/07 02:56:28;;;;;;;16.67;6.10;;;;;;;;;;6339086;22;20243;-92
2023/05/07 02:59:33;;;;;;;12.75;5.50;;;;;;;;;;6356543;22;20606;-92
2023/05/07 03:02:39;;;;;;;13.15;5.30;;;;;;;;;;6356614;22;20279;-92
2023/05/07 03:05:45;;;;;;;9.10;4.97;;;;;;;;;;6355966;22;20159;-92
2023/05/07 03:08:50;;;;;;;8.35;4.75;;;;;;;;;;6356243;22;20168;-93
2023/05/07 03:11:58;;;;;;;8.88;5.10;;;;;;;;;;6356538;22;20164;-93
2023/05/07 03:15:03;;;;;;;6.53;4.47;;;;;;;;;;6357004;22;20168;-93
2023/05/07 03:18:09;;;;;;;10.73;5.00;;;;;;;;;;6356615;22;20172;-91
2023/05/07 03:21:18;;;;;;;9.57;4.70;;;;;;;;;;6356941;22;20175;-92
2023/05/07 03:24:23;;;;;;;7.63;4.88;;;;;;;;;;6340481;22;20269;-92
2023/05/07 03:27:31;;;;;;;12.80;5.10;;;;;;;;;;6341243;22;20160;-92
2023/05/07 03:30:37;;;;;;;9.75;4.40;;;;;;;;;;6341146;22;20164;-93
2023/05/07 03:33:52;;;;;;;13.27;5.40;;;;;;;;;;6357025;22;20160;-93
2023/05/07 03:36:57;;;;;;;8.63;4.82;;;;;;;;;;6359013;22;20168;-93
2023/05/07 03:40:04;;;;;;;7.85;4.70;;;;;;;;;;6358296;22;20194;-95
2023/05/07 03:44:02;;;;;;;9.27;5.40;;;;;;;;;;6359785;22;20196;-92
2023/05/07 03:47:33;;;;;;;10.07;4.65;;;;;;;;;;6342999;22;20164;-91
2023/05/07 03:50:42;;;;;;;10.00;5.13;;;;;;;;;;6339221;22;20168;-92
2023/05/07 03:53:48;;;;;;;8.70;5.00;;;;;;;;;;6357706;22;20233;-93
2023/05/07 03:56:54;;;;;;;9.68;5.35;;;;;;;;;;6357680;22;20239;-91
2023/05/07 04:00:00;;;;;;;10.05;5.65;;;;;;;;;;6355122;22;20164;-91
2023/05/07 04:06:48;;;;;;;8.65;4.90;;;;;;;;;;6354981;22;20184;-94
2023/05/07 04:09:54;;;;;;;8.25;5.03;;;;;;;;;;6338025;22;20167;-92
2023/05/07 04:12:59;;;;;;;8.90;5.63;;;;;;;;;;6355398;22;20238;-93
2023/05/07 04:16:06;;;;;;;7.63;5.13;;;;;;;;;;6355714;22;20190;-91
2023/05/07 04:19:15;;;;;;;11.65;5.38;;;;;;;;;;6355295;22;20566;-94
2023/05/07 04:22:22;;;;;;;8.52;5.18;;;;;;;;;;6356015;22;20156;-95
2023/05/07 04:25:28;;;;;;;8.45;4.97;;;;;;;;;;6357941;22;20144;-93
2023/05/07 04:28:40;;;;;;;11.40;5.35;;;;;;;;;;6356860;22;20229;-92
2023/05/07 04:31:46;;;;;;;10.15;4.78;;;;;;;;;;6339882;22;20194;-92
2023/05/07 04:34:53;;;;;;;7.35;4.90;;;;;;;;;;6357616;22;20222;-92
2023/05/07 04:38:02;;;;;;;10.32;5.07;;;;;;;;;;6338772;22;20215;-92
2023/05/07 04:41:09;;;;;;;9.32;4.65;;;;;;;;;;6357515;22;20164;-94
2023/05/07 04:44:19;;;;;;;10.85;5.20;;;;;;;;;;6339799;22;20212;-94
2023/05/07 07:20:51;;;;;;;10.90;3.70;;;;;;;;;;6354355;22;20224;-92
2023/05/07 07:24:03;;;;;;;8.00;4.40;;;;;;;;;;6358912;22;20198;-93
2023/05/07 07:27:29;;;;;;;5.95;3.63;;;;;;;;;;6359140;22;20231;-93
2023/05/07 07:31:05;;;;;;;7.10;3.50;;;;;;;;;;6341181;22;20175;-91
2023/05/07 07:34:32;;;;;;;10.23;3.40;;;;;;;;;;6347005;22;20145;-91
2023/05/07 07:37:42;;;;;;;6.30;3.38;;;;;;;;;;6358912;22;20206;-90
2023/05/07 07:41:05;;;;;;;7.15;3.55;;;;;;;;;;6342163;22;20208;-92
2023/05/07 07:44:12;;;;;;;5.75;3.42;;;;;;;;;;6341265;22;20205;-91
2023/05/07 07:47:21;;;;;;;7.28;3.70;;;;;;;;;;6358205;22;20210;-91
2023/05/07 07:50:28;;;;;;;7.80;3.58;;;;;;;;;;6341175;22;20176;-91
2023/05/07 07:53:36;;;;;;;4.75;3.33;;;;;;;;;;6354859;22;20197;-90
2023/05/07 07:56:42;;;;;;;4.53;3.17;;;;;;;;;;6338173;22;20205;-92
2023/05/07 07:59:50;;;;;;;10.52;3.13;;;;;;;;;;6356320;22;20211;-92
2023/05/07 08:02:58;;;;;;;5.00;3.22;;;;;;;;;;6337545;22;20207;-93
2023/05/07 08:06:10;;;;;;;5.90;3.10;;;;;;;;;;6338904;22;20250;-94
2023/05/07 08:13:00;;;;;;;5.35;3.20;;;;;;;;;;6339633;22;20234;-92
2023/05/07 08:16:08;;;;;;;5.35;3.00;;;;;;;;;;6308764;22;20165;-92
2023/05/07 08:19:15;;;;;;;5.57;3.00;;;;;;;;;;6307356;22;20196;-90
2023/05/07 08:22:22;;;;;;;4.50;3.03;;;;;;;;;;6326705;22;20211;-91
2023/05/07 08:25:30;;;;;;;4.65;2.80;;;;;;;;;;6307704;22;20169;-91
2023/05/07 08:28:37;;;;;;;5.63;3.42;;;;;;;;;;6328348;22;20192;-93
2023/05/07 08:31:45;;;;;;;9.23;2.80;;;;;;;;;;6327444;22;20169;-92
2023/05/07 08:34:51;;;;;;;6.38;3.08;;;;;;;;;;6310927;22;20157;-91
2023/05/07 08:37:57;;;;;;;3.90;2.95;;;;;;;;;;6308871;22;20211;-94
2023/05/07 08:41:03;;;;;;;6.78;2.97;;;;;;;;;;6311094;22;20200;-91
2023/05/07 08:48:33;;;;;;;3.42;2.63;;;;;;;;;;6328510;22;20180;-91
2023/05/07 08:51:58;;;;;;;4.60;2.95;;;;;;;;;;6329620;22;20165;-91
2023/05/07 08:55:04;;;;;;;5.47;2.88;;;;;;;;;;6329971;22;20204;-93
2023/05/07 08:58:12;;;;;;;4.30;2.97;;;;;;;;;;6330473;22;20199;-92
2023/05/07 09:01:19;;;;;;;5.20;2.97;;;;;;;;;;6311905;22;20213;-92
2023/05/07 09:04:31;;;;;;;5.03;3.20;;;;;;;;;;6312101;22;20196;-91
2023/05/07 09:07:38;;;;;;;3.85;2.90;;;;;;;;;;6330433;22;20165;-92
2023/05/07 09:10:46;;;;;;;5.03;2.85;;;;;;;;;;6312890;22;20168;-91
2023/05/07 09:14:02;;;;;;;4.32;2.90;;;;;;;;;;6333622;22;20268;-93
2023/05/07 23:23:32;;;;;;;8.75;5.53;;;;;;;;;;6259036;22;20197;-92
2023/05/07 23:26:38;;;;;;;7.95;5.35;;;;;;;;;;6328097;22;20156;-91
2023/05/07 23:29:46;;;;;;;11.13;6.18;;;;;;;;;;6326048;22;20169;-91
2023/05/07 23:32:59;;;;;;;11.32;5.80;;;;;;;;;;6333151;22;20487;-89
2023/05/07 23:36:05;;;;;;;7.68;5.53;;;;;;;;;;6325949;22;20180;-93
2023/05/07 23:39:13;;;;;;;8.93;5.72;;;;;;;;;;6326195;22;20265;-93
2023/05/07 23:42:19;;;;;;;7.93;5.28;;;;;;;;;;6326459;22;20215;-91
2023/05/07 23:45:28;;;;;;;9.10;5.38;;;;;;;;;;6307321;22;20165;-92
2023/05/07 23:48:33;;;;;;;8.52;5.38;;;;;;;;;;6307564;22;20160;-94
2023/05/07 23:51:39;;;;;;;9.75;5.70;;;;;;;;;;6308196;22;20192;-91
2023/05/07 23:54:46;;;;;;;8.30;5.28;;;;;;;;;;6326655;22;20165;-92
2023/05/07 23:57:52;;;;;;;9.65;5.78;;;;;;;;;;6308553;22;20173;-92
